ROMMA est une association bénévole à but non lucratif. Votre soutien est indispensable : ADHERER à ROMMA ou FAIRE un DON

Saint-Vallier-de-Thiey - (06, Alpes-Maritimes)

Côte-d'Azur (723 m)   Longitude: 06° 50' 21" E   Latitude: 43° 42' 8" N Station partenaire n°150
 

Détail journalier du     <<     >>

Température Precipitation Humidité Pression Vent Dir Rafale Dir. rafale
Heure (°C) (mm) (%) (hPa) (km/h) (km/h)
01:00 11.307210164NNO13NNO
02:00 10.507610162NNO10NNO
03:00 9.406910161NNO5NNO
04:00 9.606710152NNO6NNO
05:00 10.506210153NNO13NNO
06:00 9.205810152NNE6NNE
07:00 8.405910152NE5NE
08:00 8.206110163NNE5NE
09:00 12.806110161NNE5NNE
10:00 16.204810162NNE8ESE
11:00 16.605510165S13S
12:00 17.605510164SO15S
13:00 17.705910144SSO13SSO
14:00 17.805410144SE15OSO
15:00 17.405910133SSO10SSO
16:00 18.806110123SSE10SSE
17:00 17.806610114SSE15ESE
18:00 16.807310112SE8SE
19:00 14.708010111SE5SE
20:00 13.407910113NNO8NNO
21:00 13.007710112NE11OSO
22:00 12.207810112ENE6NE
23:00 12.007810111NE5SSE
minuit 11.2082101102---

Graphique du 04-10-2019

 

Serveur OMMA